Time;durP1;ratioP1;P1;durP2;ratioP2;P2;SDS_P1;SDS_P2;PMS_P1;PMS_P2;Temp;Humidity;BMP_temperature;BMP_pressure;BME280_temperature;BME280_humidity;BME280_pressure;Samples;Min_cycle;Max_cycle;Signal;HPM_P1;HPM_P2
2022/06/23 00:00:20;;;;;;;;;;;18.80;1.00;;;;;;10187415;28;84252;-44
2022/06/23 00:05:23;;;;;;;;;;;18.80;99.90;;;;;;10200490;28;84125;-46
2022/06/23 00:10:25;;;;;;;;;;;18.70;1.00;;;;;;10204657;28;84942;-47
2022/06/23 00:15:27;;;;;;;;;;;18.60;99.90;;;;;;10207116;28;84281;-44
2022/06/23 00:20:31;;;;;;;;;;;18.50;99.90;;;;;;10211479;28;83978;-44
2022/06/23 00:25:46;;;;;;;;;;;18.40;1.00;;;;;;10211033;28;84454;-44
2022/06/23 00:30:52;;;;;;;;;;;18.40;1.00;;;;;;10193368;28;87628;-44
2022/06/23 00:35:53;;;;;;;;;;;18.30;99.90;;;;;;10210574;28;84699;-46
2022/06/23 00:40:55;;;;;;;;;;;18.30;1.00;;;;;;10211297;28;84007;-45
2022/06/23 00:46:07;;;;;;;;;;;18.20;1.00;;;;;;10211517;28;84169;-45
2022/06/23 00:51:22;;;;;;;;;;;18.20;99.90;;;;;;10209441;28;85557;-44
2022/06/23 00:56:32;;;;;;;;;;;18.10;99.90;;;;;;10209968;28;84753;-45
2022/06/23 01:01:40;;;;;;;;;;;18.00;1.00;;;;;;10208725;28;84889;-45
2022/06/23 01:06:48;;;;;;;;;;;17.90;1.00;;;;;;10209230;28;84778;-45
2022/06/23 01:11:55;;;;;;;;;;;17.90;1.00;;;;;;10209699;28;84202;-44
2022/06/23 01:17:07;;;;;;;;;;;17.90;1.00;;;;;;10209416;28;84182;-44
2022/06/23 01:22:16;;;;;;;;;;;17.80;1.00;;;;;;10207454;28;84991;-43
2022/06/23 01:27:16;;;;;;;;;;;17.70;1.00;;;;;;10208879;28;84361;-46
2022/06/23 01:32:23;;;;;;;;;;;17.60;99.90;;;;;;10208809;28;84921;-45
2022/06/23 01:37:29;;;;;;;;;;;17.50;99.90;;;;;;10208978;28;84635;-44
2022/06/23 01:42:44;;;;;;;;;;;17.40;99.90;;;;;;10208758;28;84958;-45
2022/06/23 01:47:58;;;;;;;;;;;17.40;99.90;;;;;;10208493;28;83994;-46
2022/06/23 01:53:11;;;;;;;;;;;17.40;99.90;;;;;;10207202;28;84978;-46
2022/06/23 01:58:13;;;;;;;;;;;17.30;99.90;;;;;;10192966;23;85320;-54
2022/06/23 02:03:17;;;;;;;;;;;17.30;1.00;;;;;;10211102;28;84234;-52
2022/06/23 02:08:41;;;;;;;;;;;17.30;1.00;;;;;;10176065;28;84145;-53
2022/06/23 02:14:03;;;;;;;;;;;17.20;1.00;;;;;;10174275;28;84322;-50
2022/06/23 02:19:10;;;;;;;;;;;17.20;1.00;;;;;;10186770;28;85218;-52
2022/06/23 02:24:25;;;;;;;;;;;17.20;1.00;;;;;;10213967;28;84127;-49
2022/06/23 02:29:39;;;;;;;;;;;17.20;1.00;;;;;;10212932;28;84892;-52
2022/06/23 02:34:45;;;;;;;;;;;17.10;1.00;;;;;;10198339;28;84921;-50
2022/06/23 02:39:49;;;;;;;;;;;17.00;1.00;;;;;;10211689;28;85696;-53
2022/06/23 02:45:10;;;;;;;;;;;17.00;1.00;;;;;;10212826;28;84031;-49
2022/06/23 02:50:20;;;;;;;;;;;17.00;1.00;;;;;;10218163;28;84779;-49
2022/06/23 02:55:38;;;;;;;;;;;17.00;1.00;;;;;;10210244;28;87658;-49
2022/06/23 03:00:42;;;;;;;;;;;16.80;1.00;;;;;;10209933;28;84811;-51
2022/06/23 03:05:52;;;;;;;;;;;16.80;1.00;;;;;;10211269;28;85172;-50
2022/06/23 03:11:18;;;;;;;;;;;16.70;1.00;;;;;;10210851;28;84138;-54
2022/06/23 03:16:19;;;;;;;;;;;16.70;1.00;;;;;;10210007;28;84050;-51
2022/06/23 03:21:26;;;;;;;;;;;16.60;1.00;;;;;;10208299;28;86562;-51
2022/06/23 03:26:40;;;;;;;;;;;16.60;1.00;;;;;;10209840;28;85120;-50
2022/06/23 03:31:50;;;;;;;;;;;16.50;1.00;;;;;;10209094;28;84179;-51
2022/06/23 03:36:57;;;;;;;;;;;16.50;1.00;;;;;;10208575;28;85850;-49
2022/06/23 03:42:10;;;;;;;;;;;16.40;1.00;;;;;;10210643;28;85036;-52
2022/06/23 03:47:18;;;;;;;;;;;16.40;1.00;;;;;;10212023;28;85641;-52
2022/06/23 03:52:19;;;;;;;;;;;16.40;1.00;;;;;;10217832;28;85338;-49
2022/06/23 03:57:24;;;;;;;;;;;16.40;1.00;;;;;;10215589;28;84250;-50
2022/06/23 04:02:27;;;;;;;;;;;16.40;1.00;;;;;;10215253;28;84158;-51
2022/06/23 04:07:28;;;;;;;;;;;16.50;1.00;;;;;;10217675;28;85013;-53
2022/06/23 04:12:29;;;;;;;;;;;16.50;1.00;;;;;;10213776;28;87069;-50
2022/06/23 04:17:33;;;;;;;;;;;16.60;1.00;;;;;;10215647;28;85007;-50
2022/06/23 04:22:38;;;;;;;;;;;16.70;1.00;;;;;;10214713;28;84306;-50
2022/06/23 04:27:40;;;;;;;;;;;16.80;1.00;;;;;;10216154;28;84786;-50
2022/06/23 04:32:41;;;;;;;;;;;16.90;1.00;;;;;;10212533;28;84547;-50
2022/06/23 04:37:49;;;;;;;;;;;16.90;1.00;;;;;;10214526;28;83970;-52
2022/06/23 04:43:20;;;;;;;;;;;16.90;1.00;;;;;;10211952;28;86127;-54
2022/06/23 04:48:24;;;;;;;;;;;17.00;1.00;;;;;;10186719;28;84951;-52
2022/06/23 04:53:30;;;;;;;;;;;17.10;1.00;;;;;;10210582;28;85208;-51
2022/06/23 04:58:34;;;;;;;;;;;17.30;1.00;;;;;;10227483;28;87199;-55
2022/06/23 05:03:37;;;;;;;;;;;17.40;1.00;;;;;;10211358;28;85021;-51
2022/06/23 05:08:41;;;;;;;;;;;17.50;1.00;;;;;;10172938;28;86877;-50
2022/06/23 05:13:47;;;;;;;;;;;17.60;1.00;;;;;;10200781;28;84332;-48
2022/06/23 05:18:49;;;;;;;;;;;17.70;1.00;;;;;;10196222;28;84085;-52
2022/06/23 05:23:54;;;;;;;;;;;17.80;99.90;;;;;;10195962;28;84730;-49
2022/06/23 05:28:57;;;;;;;;;;;17.90;99.90;;;;;;10208331;28;85113;-53
2022/06/23 05:34:00;;;;;;;;;;;18.10;99.90;;;;;;10212417;28;85062;-52
2022/06/23 05:39:11;;;;;;;;;;;18.40;99.90;;;;;;10198196;28;85363;-51
2022/06/23 05:44:20;;;;;;;;;;;18.60;1.00;;;;;;10176213;28;85326;-51
2022/06/23 05:49:25;;;;;;;;;;;18.70;1.00;;;;;;10200339;28;85118;-51
2022/06/23 05:54:48;;;;;;;;;;;19.00;1.00;;;;;;10203425;28;84277;-51
2022/06/23 06:00:14;;;;;;;;;;;19.20;1.00;;;;;;10209807;28;87453;-53
2022/06/23 06:05:21;;;;;;;;;;;19.50;1.00;;;;;;10191105;28;87154;-49
2022/06/23 06:10:24;;;;;;;;;;;19.70;99.90;;;;;;10208567;28;84960;-54
2022/06/23 06:15:26;;;;;;;;;;;19.80;99.90;;;;;;10210213;28;84323;-55
2022/06/23 06:20:27;;;;;;;;;;;20.00;99.90;;;;;;10201618;28;84377;-56
2022/06/23 06:25:30;;;;;;;;;;;20.30;1.00;;;;;;10204141;28;84324;-55
2022/06/23 06:30:32;;;;;;;;;;;20.40;1.00;;;;;;10205378;28;84057;-60
2022/06/23 06:35:33;;;;;;;;;;;20.80;99.90;;;;;;10205598;28;84134;-58
2022/06/23 06:40:34;;;;;;;;;;;21.10;1.00;;;;;;10204436;28;84955;-54
2022/06/23 06:45:36;;;;;;;;;;;21.40;1.00;;;;;;10200334;28;84865;-55
2022/06/23 06:50:39;;;;;;;;;;;21.50;1.00;;;;;;10217385;28;84143;-52
2022/06/23 06:55:49;;;;;;;;;;;21.80;1.00;;;;;;10204877;28;84843;-54
2022/06/23 07:00:55;;;;;;;;;;;22.00;1.00;;;;;;10212309;28;84739;-50
2022/06/23 07:06:08;;;;;;;;;;;22.40;99.90;;;;;;10215119;28;84201;-52
2022/06/23 07:11:16;;;;;;;;;;;22.80;99.90;;;;;;10215625;28;84390;-55
2022/06/23 07:16:32;;;;;;;;;;;22.80;1.00;;;;;;10216291;28;84927;-54
2022/06/23 07:21:32;;;;;;;;;;;23.20;1.00;;;;;;10215644;28;86637;-51
2022/06/23 07:26:36;;;;;;;;;;;23.60;1.00;;;;;;10226363;28;84162;-51
2022/06/23 07:31:43;;;;;;;;;;;24.00;99.90;;;;;;10226301;28;84015;-55
2022/06/23 07:36:52;;;;;;;;;;;24.60;1.00;;;;;;10228071;28;85351;-56
2022/06/23 07:42:01;;;;;;;;;;;25.50;1.00;;;;;;10229438;28;84033;-54
2022/06/23 07:47:02;;;;;;;;;;;26.40;98.80;;;;;;10224910;28;84062;-56
2022/06/23 07:52:03;;;;;;;;;;;27.10;1.00;;;;;;10223027;28;85299;-56
2022/06/23 07:57:04;;;;;;;;;;;27.60;1.00;;;;;;10228072;28;84220;-55
2022/06/23 08:02:14;;;;;;;;;;;28.20;99.90;;;;;;10264103;22;84078;-47
2022/06/23 08:07:15;;;;;;;;;;;29.00;99.90;;;;;;10257781;28;84950;-47
2022/06/23 08:17:40;;;;;;;;;;;29.70;1.00;;;;;;10257736;28;84037;-46
2022/06/23 08:22:42;;;;;;;;;;;30.50;1.00;;;;;;10257436;28;84171;-46
2022/06/23 08:27:43;;;;;;;;;;;30.70;1.00;;;;;;10257211;28;84145;-45
2022/06/23 08:32:46;;;;;;;;;;;30.80;1.00;;;;;;10257422;28;84183;-47
2022/06/23 08:37:57;;;;;;;;;;;31.30;1.00;;;;;;10250651;28;84099;-47
2022/06/23 08:42:57;;;;;;;;;;;31.50;1.00;;;;;;10248813;28;84946;-47
2022/06/23 08:48:01;;;;;;;;;;;32.30;1.00;;;;;;10250694;28;84875;-46
2022/06/23 08:53:11;;;;;;;;;;;31.70;1.00;;;;;;10250089;28;84116;-45
2022/06/23 08:58:17;;;;;;;;;;;32.40;1.00;;;;;;10250927;28;84768;-46
2022/06/23 09:03:32;;;;;;;;;;;33.30;1.00;;;;;;10248077;28;86050;-48
2022/06/23 09:08:42;;;;;;;;;;;33.40;1.00;;;;;;10249445;28;84734;-48
2022/06/23 09:13:57;;;;;;;;;;;33.50;1.00;;;;;;10250221;28;84103;-46
2022/06/23 09:19:03;;;;;;;;;;;34.60;1.00;;;;;;10249987;28;84011;-46
2022/06/23 09:24:07;;;;;;;;;;;35.30;1.00;;;;;;10249907;28;84899;-46
2022/06/23 09:29:21;;;;;;;;;;;34.80;1.00;;;;;;10249076;28;85262;-44
2022/06/23 09:34:30;;;;;;;;;;;35.30;1.00;;;;;;10247450;28;84936;-45
2022/06/23 09:40:03;;;;;;;2.20;2.00;;;36.00;1.00;;;;;;10249931;28;84998;-46
2022/06/23 09:45:43;;;;;;;2.15;1.95;;;36.30;1.00;;;;;;10237455;28;84328;-45
2022/06/23 09:50:50;;;;;;;2.47;2.28;;;37.20;1.00;;;;;;10248981;28;84300;-44
2022/06/23 09:56:05;;;;;;;2.22;2.00;;;37.60;1.00;;;;;;10249330;28;84106;-48
2022/06/23 10:01:30;;;;;;;2.72;2.10;;;37.40;1.00;;;;;;10251040;28;84930;-45
2022/06/23 10:06:46;;;;;;;2.10;1.92;;;38.10;1.00;;;;;;10254242;28;84206;-46
2022/06/23 10:12:03;;;;;;;2.40;2.20;;;38.60;1.00;;;;;;10253397;28;84014;-46
2022/06/23 10:17:21;;;;;;;1.92;1.83;;;38.50;1.00;;;;;;10252801;28;84986;-46
2022/06/23 10:22:33;;;;;;;2.10;1.95;;;37.90;99.90;;;;;;10250592;28;84256;-45
2022/06/23 10:27:45;;;;;;;2.03;1.92;;;38.90;99.90;;;;;;10248070;28;84162;-44
2022/06/23 10:33:08;;;;;;;2.58;2.38;;;39.10;99.90;;;;;;10248475;28;84114;-45
2022/06/23 10:38:44;;;;;;;2.13;2.03;;;38.60;99.90;;;;;;10250295;28;85958;-45
2022/06/23 10:44:02;;;;;;;1.80;1.70;;;38.20;1.00;;;;;;10252859;28;85077;-48
2022/06/23 10:49:16;;;;;;;2.70;2.10;;;38.70;1.00;;;;;;10250514;28;84603;-47
2022/06/23 10:54:46;;;;;;;2.20;2.00;;;38.40;1.00;;;;;;10250949;28;84234;-47
2022/06/23 11:00:02;;;;;;;2.20;2.00;;;39.10;1.00;;;;;;10247802;28;85151;-50
2022/06/23 11:05:15;;;;;;;2.05;1.85;;;40.10;1.00;;;;;;10248347;28;84162;-52
2022/06/23 11:10:53;;;;;;;2.13;2.03;;;40.00;1.00;;;;;;10247788;28;86414;-51
2022/06/23 11:16:05;;;;;;;2.35;1.90;;;39.70;1.00;;;;;;10247726;28;84742;-49
2022/06/23 11:21:34;;;;;;;1.85;1.75;;;40.30;1.00;;;;;;10247690;28;84160;-46
2022/06/23 11:26:58;;;;;;;3.03;1.93;;;39.30;1.00;;;;;;10247205;28;84012;-50
2022/06/23 11:32:52;;;;;;;2.05;1.80;;;40.60;1.00;;;;;;10245774;28;83955;-47
2022/06/23 11:38:14;;;;;;;1.75;1.65;;;40.00;1.00;;;;;;10192676;28;84079;-46
2022/06/23 11:43:26;;;;;;;3.20;2.20;;;40.10;1.00;;;;;;10247023;28;84229;-45
2022/06/23 11:48:42;;;;;;;2.03;1.83;;;39.70;1.00;;;;;;10245612;28;84382;-45
2022/06/23 11:54:18;;;;;;;2.25;2.03;;;39.90;1.00;;;;;;10245469;28;84984;-47
2022/06/23 11:59:40;;;;;;;2.20;2.00;;;39.30;1.00;;;;;;10244734;28;85242;-46
2022/06/23 12:04:59;;;;;;;2.15;2.05;;;40.00;1.00;;;;;;10245580;28;84074;-47
2022/06/23 12:10:20;;;;;;;2.30;2.10;;;40.20;1.00;;;;;;10245475;28;84370;-46
2022/06/23 12:15:25;;;;;;;3.28;1.92;;;39.70;1.00;;;;;;10252081;28;85092;-46
2022/06/23 12:20:40;;;;;;;2.30;2.10;;;40.80;1.00;;;;;;10251352;28;84019;-47
2022/06/23 12:26:02;;;;;;;2.53;1.80;;;41.20;1.00;;;;;;10251325;28;84102;-45
2022/06/23 12:31:20;;;;;;;2.38;2.10;;;40.80;1.00;;;;;;10250919;28;84845;-45
2022/06/23 12:36:44;;;;;;;2.45;2.25;;;41.40;1.00;;;;;;10251353;28;84175;-47
2022/06/23 12:41:52;;;;;;;2.75;2.28;;;40.40;1.00;;;;;;10250928;28;84243;-48
2022/06/23 12:46:58;;;;;;;2.40;2.17;;;41.50;1.00;;;;;;10250035;28;84904;-47
2022/06/23 12:52:23;;;;;;;2.08;1.98;;;40.10;1.00;;;;;;10250892;28;85007;-46
2022/06/23 12:57:50;;;;;;;2.10;2.00;;;39.80;1.00;;;;;;10250331;28;84760;-46
2022/06/23 13:02:53;;;;;;;2.60;2.28;;;39.10;1.00;;;;;;10250480;28;84307;-47
2022/06/23 13:08:38;;;;;;;2.00;1.90;;;39.10;1.00;;;;;;10248465;28;85037;-46
2022/06/23 13:13:49;;;;;;;2.45;1.95;;;40.60;1.00;;;;;;10221128;28;85043;-49
2022/06/23 13:18:59;;;;;;;3.25;2.00;;;40.70;1.00;;;;;;10250729;28;84213;-48
2022/06/23 13:24:08;;;;;;;2.20;2.00;;;41.00;1.00;;;;;;10247867;28;86950;-46
2022/06/23 13:29:21;;;;;;;2.10;2.00;;;40.20;1.00;;;;;;10249334;28;84075;-50
2022/06/23 13:34:29;;;;;;;2.30;2.10;;;40.00;1.00;;;;;;10249249;28;84270;-46
2022/06/23 13:39:58;;;;;;;2.30;2.08;;;39.00;1.00;;;;;;10249411;28;84207;-46
2022/06/23 13:45:04;;;;;;;3.22;2.13;;;39.50;1.00;;;;;;10248958;28;84669;-51
2022/06/23 13:50:18;;;;;;;2.10;1.95;;;38.50;1.00;;;;;;10249264;28;84175;-46
2022/06/23 13:55:28;;;;;;;2.10;2.00;;;38.50;1.00;;;;;;10248816;28;83971;-47
2022/06/23 14:00:34;;;;;;;2.28;2.13;;;38.00;1.00;;;;;;10269832;22;85077;-46
2022/06/23 14:05:55;;;;;;;1.92;1.83;;;36.70;1.00;;;;;;10247802;28;85314;-47
2022/06/23 14:11:06;;;;;;;2.08;1.90;;;36.10;1.00;;;;;;10248362;28;84886;-49
2022/06/23 14:16:12;;;;;;;2.20;2.00;;;35.80;1.00;;;;;;10247784;28;84780;-51
2022/06/23 14:21:40;;;;;;;3.25;2.00;;;35.00;1.00;;;;;;10247888;28;84847;-48
2022/06/23 14:26:59;;;;;;;2.40;2.20;;;34.40;1.00;;;;;;10246532;28;84898;-46
2022/06/23 14:32:07;;;;;;;;;;;34.50;1.00;;;;;;10247406;28;85013;-52
2022/06/23 14:37:12;;;;;;;2.30;2.10;;;33.80;1.00;;;;;;10247672;28;84303;-47
2022/06/23 14:42:29;;;;;;;;;;;33.90;1.00;;;;;;10247239;28;84798;-49
2022/06/23 14:47:39;;;;;;;;;;;33.90;1.00;;;;;;10247268;28;84742;-51
2022/06/23 14:52:59;;;;;;;;;;;33.60;1.00;;;;;;10262372;28;86709;-50
2022/06/23 14:58:12;;;;;;;;;;;33.20;1.00;;;;;;10246957;28;85193;-48
2022/06/23 15:03:22;;;;;;;;;;;33.20;1.00;;;;;;10246127;28;84894;-51
2022/06/23 15:08:22;;;;;;;;;;;33.20;1.00;;;;;;10246480;28;84834;-46
2022/06/23 15:13:23;;;;;;;;;;;33.20;1.00;;;;;;10244928;28;84184;-50
2022/06/23 15:18:23;;;;;;;;;;;33.30;1.00;;;;;;10246326;28;85398;-47
2022/06/23 15:23:29;;;;;;;;;;;33.20;1.00;;;;;;10246311;28;85031;-47
2022/06/23 15:28:41;;;;;;;;;;;33.20;1.00;;;;;;10245601;28;83999;-46
2022/06/23 15:33:46;;;;;;;;;;;33.00;1.00;;;;;;10245520;28;84871;-51
2022/06/23 15:38:47;;;;;;;;;;;32.80;1.00;;;;;;10245541;28;84959;-51
2022/06/23 15:44:08;;;;;;;;;;;32.80;1.00;;;;;;10245967;28;84179;-51
2022/06/23 15:49:16;;;;;;;;;;;32.80;1.00;;;;;;10252852;28;84260;-48
2022/06/23 15:54:42;;;;;;;;;;;32.30;1.00;;;;;;10253082;28;85132;-48
2022/06/23 15:59:56;;;;;;;;;;;32.50;1.00;;;;;;10235003;28;85118;-48
2022/06/23 16:04:58;;;;;;;;;;;32.60;1.00;;;;;;10250334;28;84141;-47
2022/06/23 16:10:01;;;;;;;;;;;32.50;1.00;;;;;;10251542;28;85364;-47
2022/06/23 16:15:04;;;;;;;;;;;32.20;1.00;;;;;;10251640;28;86728;-46
2022/06/23 16:20:11;;;;;;;;;;;32.10;1.00;;;;;;10252126;28;84390;-46
2022/06/23 16:25:23;;;;;;;;;;;32.20;1.00;;;;;;10252881;28;84123;-50
2022/06/23 16:30:25;;;;;;;;;;;32.10;1.00;;;;;;10250390;28;84216;-49
2022/06/23 16:35:37;;;;;;;;;;;31.90;1.00;;;;;;10246596;28;86971;-48
2022/06/23 16:40:58;;;;;;;;;;;32.00;1.00;;;;;;10230672;28;84888;-48
2022/06/23 16:46:08;;;;;;;;;;;31.90;1.00;;;;;;10231061;28;84980;-48
2022/06/23 16:51:14;;;;;;;;;;;31.70;1.00;;;;;;10236174;28;84373;-52
2022/06/23 16:56:25;;;;;;;;;;;31.60;1.00;;;;;;10234590;28;85427;-51
2022/06/23 17:01:33;;;;;;;;;;;31.60;1.00;;;;;;10209406;28;84129;-47
2022/06/23 17:06:49;;;;;;;;;;;31.50;1.00;;;;;;10232025;28;84628;-54
2022/06/23 17:11:56;;;;;;;;;;;31.40;1.00;;;;;;10236008;28;84281;-51
2022/06/23 17:16:59;;;;;;;;;;;31.30;1.00;;;;;;10239342;28;85364;-50
2022/06/23 17:22:18;;;;;;;;;;;31.10;1.00;;;;;;10244993;28;84964;-50
2022/06/23 17:27:30;;;;;;;;;;;31.10;1.00;;;;;;10230318;28;85411;-50
2022/06/23 17:32:35;;;;;;;;;;;30.90;1.00;;;;;;10246212;28;84305;-54
2022/06/23 17:37:41;;;;;;;;;;;30.90;1.00;;;;;;10232551;28;84921;-63
2022/06/23 17:48:31;;;;;;;;;;;30.80;1.00;;;;;;10220818;28;85207;-61
2022/06/23 17:53:31;;;;;;;;;;;30.60;1.00;;;;;;10235375;28;86235;-58
2022/06/23 17:58:32;;;;;;;;;;;30.50;1.00;;;;;;10227149;28;84877;-59
2022/06/23 18:03:35;;;;;;;;;;;30.50;1.00;;;;;;10234842;28;84977;-56
2022/06/23 18:08:47;;;;;;;;;;;30.40;1.00;;;;;;10236483;28;84823;-60
2022/06/23 18:14:01;;;;;;;;;;;30.30;1.00;;;;;;10236325;28;84777;-54
2022/06/23 18:19:05;;;;;;;;;;;30.10;1.00;;;;;;10238093;28;85790;-57
2022/06/23 18:24:14;;;;;;;;;;;30.10;1.00;;;;;;10238461;28;84943;-64
2022/06/23 18:29:17;;;;;;;;;;;29.90;1.00;;;;;;10235445;28;84963;-61
2022/06/23 18:34:27;;;;;;;;;;;29.80;1.00;;;;;;10232611;28;84228;-59
2022/06/23 18:39:37;;;;;;;;;;;29.70;1.00;;;;;;10227981;28;85541;-59
2022/06/23 18:44:41;;;;;;;;;;;29.70;1.00;;;;;;10236266;28;84296;-63
2022/06/23 18:49:53;;;;;;;;;;;29.50;1.00;;;;;;10257095;28;84134;-56
2022/06/23 18:55:04;;;;;;;;;;;29.40;1.00;;;;;;10239732;28;84656;-55
2022/06/23 19:00:11;;;;;;;;;;;29.30;1.00;;;;;;10229299;28;85269;-63
2022/06/23 19:05:21;;;;;;;;;;;29.10;1.00;;;;;;10234703;28;84812;-58
2022/06/23 19:10:44;;;;;;;;;;;29.00;1.00;;;;;;10235888;28;84218;-59
2022/06/23 19:15:48;;;;;;;;;;;28.80;1.00;;;;;;10239758;28;84271;-62
2022/06/23 19:21:09;;;;;;;;;;;28.70;1.00;;;;;;10233854;28;84693;-57
2022/06/23 19:26:12;;;;;;;;;;;28.60;1.00;;;;;;10228513;28;84116;-51
2022/06/23 19:31:22;;;;;;;;;;;28.50;1.00;;;;;;10244954;28;84851;-50
2022/06/23 19:36:27;;;;;;;;;;;28.30;1.00;;;;;;10239094;28;85464;-53
2022/06/23 19:41:47;;;;;;;;;;;28.20;1.00;;;;;;10245498;28;84450;-51
2022/06/23 19:46:50;;;;;;;;;;;28.00;1.00;;;;;;10241449;28;84325;-53
2022/06/23 19:51:52;;;;;;;;;;;27.80;1.00;;;;;;10244758;28;83953;-52
2022/06/23 19:56:55;;;;;;;;;;;27.70;1.00;;;;;;10243534;28;84039;-48
2022/06/23 20:02:06;;;;;;;;;;;27.60;1.00;;;;;;10231093;23;84377;-58
2022/06/23 20:07:14;;;;;;;;;;;27.50;1.00;;;;;;10181597;28;84889;-60
2022/06/23 20:12:24;;;;;;;;;;;27.30;1.00;;;;;;10165948;28;86009;-60
2022/06/23 20:17:30;;;;;;;;;;;27.30;1.00;;;;;;10165933;28;84108;-59
2022/06/23 20:22:42;;;;;;;;;;;27.20;1.00;;;;;;10163366;28;84126;-60
2022/06/23 20:27:49;;;;;;;;;;;27.00;1.00;;;;;;10162557;28;84821;-59
2022/06/23 20:32:49;;;;;;;;;;;26.90;1.00;;;;;;10168673;28;85148;-59
2022/06/23 20:37:53;;;;;;;;;;;26.80;1.00;;;;;;10170512;28;84249;-60
2022/06/23 20:43:03;;;;;;;;;;;26.60;1.00;;;;;;10171212;28;84225;-61
2022/06/23 20:48:13;;;;;;;;;;;26.50;6.30;;;;;;10184657;28;85933;-60
2022/06/23 20:53:22;;;;;;;;;;;26.40;99.90;;;;;;10170980;28;84275;-57
2022/06/23 20:58:58;;;;;;;;;;;26.30;1.00;;;;;;10164552;28;85017;-62
2022/06/23 21:04:09;;;;;;;;;;;26.10;99.90;;;;;;10116643;28;1093076;-59
2022/06/23 21:09:25;;;;;;;;;;;26.00;1.00;;;;;;10172985;28;85002;-59
2022/06/23 21:14:57;;;;;;;;;;;25.80;1.00;;;;;;10189839;28;85023;-58
2022/06/23 21:19:57;;;;;;;;;;;25.70;1.00;;;;;;10128969;28;84904;-59
2022/06/23 21:25:04;;;;;;;;;;;25.70;1.00;;;;;;10134097;28;84833;-58
2022/06/23 21:30:13;;;;;;;;;;;25.60;1.00;;;;;;10185933;28;84515;-57
2022/06/23 21:35:18;;;;;;;;;;;25.50;1.00;;;;;;10169961;28;84925;-58
2022/06/23 21:40:27;;;;;;;;;;;25.50;1.00;;;;;;10169910;28;84958;-59
2022/06/23 21:45:33;;;;;;;;;;;25.40;1.00;;;;;;10169374;28;84090;-59
2022/06/23 21:50:34;;;;;;;;;;;25.30;1.00;;;;;;10169777;28;84271;-59
2022/06/23 21:55:35;;;;;;;;;;;25.20;1.00;;;;;;10168998;28;84090;-59
2022/06/23 22:00:37;;;;;;;;;;;25.20;1.00;;;;;;10168060;28;84909;-60
2022/06/23 22:05:54;;;;;;;;;;;25.10;1.00;;;;;;10166779;28;87035;-60
2022/06/23 22:11:00;;;;;;;;;;;24.90;1.00;;;;;;10169308;28;84101;-60
2022/06/23 22:16:03;;;;;;;;;;;24.80;1.00;;;;;;10168942;28;84135;-57
2022/06/23 22:21:06;;;;;;;;;;;24.80;1.00;;;;;;10168085;28;84833;-60
2022/06/23 22:26:26;;;;;;;;;;;24.70;1.00;;;;;;10168091;28;84814;-60
2022/06/23 22:31:45;;;;;;;;;;;24.60;1.00;;;;;;10167737;28;84757;-59
2022/06/23 22:36:51;;;;;;;;;;;24.60;1.00;;;;;;10165400;28;84269;-60
2022/06/23 22:41:51;;;;;;;;;;;24.40;99.90;;;;;;10164506;28;84141;-60
2022/06/23 22:47:09;;;;;;;;;;;24.40;99.90;;;;;;10183087;28;84428;-59
2022/06/23 22:52:14;;;;;;;;;;;24.20;99.90;;;;;;10164909;28;84897;-58
2022/06/23 22:57:33;;;;;;;;;;;24.10;1.00;;;;;;10187580;28;84171;-60
2022/06/23 23:02:34;;;;;;;;;;;24.10;1.00;;;;;;10206651;28;84225;-59
2022/06/23 23:07:45;;;;;;;;;;;24.00;99.90;;;;;;10180511;28;84155;-58
2022/06/23 23:12:52;;;;;;;;;;;24.00;99.90;;;;;;10167756;28;85262;-59
2022/06/23 23:17:56;;;;;;;;;;;23.90;99.90;;;;;;10167680;28;84282;-57
2022/06/23 23:22:57;;;;;;;;;;;23.80;99.90;;;;;;10164970;28;84332;-59
2022/06/23 23:28:08;;;;;;;;;;;23.80;99.90;;;;;;10181334;28;85017;-58
2022/06/23 23:33:16;;;;;;;;;;;23.70;1.00;;;;;;10165580;28;85185;-59
2022/06/23 23:38:35;;;;;;;;;;;23.60;1.00;;;;;;10179753;28;85098;-57
2022/06/23 23:43:35;;;;;;;;;;;23.60;99.90;;;;;;10164835;28;84823;-60
2022/06/23 23:48:36;;;;;;;;;;;23.50;1.00;;;;;;10166043;28;84932;-60
2022/06/23 23:53:37;;;;;;;;;;;23.60;1.00;;;;;;10165213;28;84229;-56
2022/06/23 23:58:41;;;;;;;;;;;23.60;1.00;;;;;;10164372;28;84721;-59
